Weather, Runways
& NOTAMs

CYYZ - Toronto-Lester B. Pearson International

Suggested Runways: Departures: 06L, Arrivals: 05
CYOW - Ottawa Macdonald-Cartier International      ATIS Currently Online:  Information 
CYOW ATIS INFO H , WEATHER AT 1816Z , WIND 070 AT 11 ,^§VISIBILITY 15 , LIGHT RAIN , , 1800 OVC , , TEMPERATURE 9 ,^§DEW POINT 6 , , ALTIMETER 2995 , IFR APPROACH RUNWAY IN USE 07^§AND RUNWAY 32 INFORM CYOW ATC ATIS H .
CYTZ - Billy Bishop Toronto City      ATIS Currently Online:  Information K
information K Automated weather at 1800Z , Wind 340 at 5^§variable between 270 degrees to 030 degrees , Visibility 9 ,^§Sky conditions 3600 scattered ceiling 6000 overcast^§temperature 10 dew point 2 , Altimeter 2999 , Approach ILS^§runway 08 , Departure runway 08 ,^§Advise ATC that you have information K .
CYXU - London International
CYXU 031900Z 32010G18KT 15SM SCT036 11/03 A3000 RMK SC3 SLP168
Suggested Runway: 33
CYHM - John C. Munro Hamilton International
CYHM 031900Z 36004KT 330V090 15SM BKN025 BKN034 10/04 A2998 RMK SC5SC2 SLP159
Suggested Runway: 30
CYKF - Region of Waterloo International
CYKF 031900Z AUTO 35009KT 330V060 9SM BKN036 12/04 A2998 RMK SLP159
Suggested Runway: 26
CYAM - Sault Ste. Marie
CYAM 031900Z 17006KT 110V190 25SM FEW260 10/M01 A3009 RMK CI1 CI TR SLP198
Suggested Runway: 12
CYTR - Canadian Forces Base Trenton
CYTR 031900Z 01011KT 10SM -RA BKN017 OVC080 09/06 A2996 RMK SC7AS1 SLP147
Suggested Runway: 06
CYOO - Toronto/Oshawa Executive
CYOO 031900Z AUTO 34008G15KT 310V010 9SM BKN027 OVC036 10/05 A2996 RMK SLP151
Suggested Runway: 30

NOTAMs